sensor_id;sensor_type;location;lat;lon;timestamp;P1;durP1;ratioP1;P2;durP2;ratioP2
17953;SDS011;9102;53.548;9.926;2022-11-14T00:01:35;47.85;;;26.40;;
17953;SDS011;9102;53.548;9.926;2022-11-14T00:04:02;48.70;;;26.75;;
17953;SDS011;9102;53.548;9.926;2022-11-14T00:06:29;47.50;;;26.98;;
17953;SDS011;9102;53.548;9.926;2022-11-14T00:08:57;48.22;;;27.67;;
17953;SDS011;9102;53.548;9.926;2022-11-14T00:11:24;48.22;;;25.52;;
17953;SDS011;9102;53.548;9.926;2022-11-14T00:13:51;49.70;;;26.48;;
17953;SDS011;9102;53.548;9.926;2022-11-14T00:16:18;47.95;;;27.10;;
17953;SDS011;9102;53.548;9.926;2022-11-14T00:18:44;48.08;;;25.90;;
17953;SDS011;9102;53.548;9.926;2022-11-14T00:21:11;47.72;;;25.65;;
17953;SDS011;9102;53.548;9.926;2022-11-14T00:23:38;51.00;;;26.60;;
17953;SDS011;9102;53.548;9.926;2022-11-14T00:26:06;52.33;;;27.10;;
17953;SDS011;9102;53.548;9.926;2022-11-14T00:28:33;51.08;;;26.52;;
17953;SDS011;9102;53.548;9.926;2022-11-14T00:31:00;49.45;;;25.10;;
17953;SDS011;9102;53.548;9.926;2022-11-14T00:33:26;50.55;;;26.27;;
17953;SDS011;9102;53.548;9.926;2022-11-14T00:35:54;51.40;;;26.95;;
17953;SDS011;9102;53.548;9.926;2022-11-14T00:38:21;51.08;;;25.65;;
17953;SDS011;9102;53.548;9.926;2022-11-14T00:40:48;47.47;;;25.67;;
17953;SDS011;9102;53.548;9.926;2022-11-14T00:43:17;51.08;;;25.55;;
17953;SDS011;9102;53.548;9.926;2022-11-14T00:45:44;49.80;;;26.05;;
17953;SDS011;9102;53.548;9.926;2022-11-14T00:48:11;53.03;;;26.95;;
17953;SDS011;9102;53.548;9.926;2022-11-14T00:50:39;49.92;;;26.05;;
17953;SDS011;9102;53.548;9.926;2022-11-14T00:53:05;53.08;;;27.33;;
17953;SDS011;9102;53.548;9.926;2022-11-14T00:55:32;55.78;;;27.65;;
17953;SDS011;9102;53.548;9.926;2022-11-14T00:57:59;51.40;;;26.05;;
17953;SDS011;9102;53.548;9.926;2022-11-14T01:00:27;45.90;;;25.55;;
17953;SDS011;9102;53.548;9.926;2022-11-14T01:02:54;56.08;;;28.00;;
17953;SDS011;9102;53.548;9.926;2022-11-14T01:05:22;52.70;;;26.75;;
17953;SDS011;9102;53.548;9.926;2022-11-14T01:07:49;56.65;;;27.83;;
17953;SDS011;9102;53.548;9.926;2022-11-14T01:10:16;53.08;;;28.08;;
17953;SDS011;9102;53.548;9.926;2022-11-14T01:12:43;51.08;;;26.27;;
17953;SDS011;9102;53.548;9.926;2022-11-14T01:15:10;52.70;;;26.25;;
17953;SDS011;9102;53.548;9.926;2022-11-14T01:17:38;50.80;;;26.83;;
17953;SDS011;9102;53.548;9.926;2022-11-14T01:20:05;51.67;;;27.48;;
17953;SDS011;9102;53.548;9.926;2022-11-14T01:22:33;55.60;;;28.38;;
17953;SDS011;9102;53.548;9.926;2022-11-14T01:24:59;47.63;;;26.45;;
17953;SDS011;9102;53.548;9.926;2022-11-14T01:27:28;58.78;;;28.27;;
17953;SDS011;9102;53.548;9.926;2022-11-14T01:29:56;54.17;;;28.10;;
17953;SDS011;9102;53.548;9.926;2022-11-14T01:32:23;54.67;;;28.27;;
17953;SDS011;9102;53.548;9.926;2022-11-14T01:34:52;55.60;;;28.20;;
17953;SDS011;9102;53.548;9.926;2022-11-14T01:37:19;56.60;;;28.05;;
17953;SDS011;9102;53.548;9.926;2022-11-14T01:39:47;58.13;;;29.55;;
17953;SDS011;9102;53.548;9.926;2022-11-14T01:42:13;58.35;;;28.48;;
17953;SDS011;9102;53.548;9.926;2022-11-14T01:44:44;53.75;;;27.20;;
17953;SDS011;9102;53.548;9.926;2022-11-14T01:47:14;55.53;;;27.92;;
17953;SDS011;9102;53.548;9.926;2022-11-14T01:49:44;55.65;;;28.88;;
17953;SDS011;9102;53.548;9.926;2022-11-14T01:52:16;59.92;;;28.33;;
17953;SDS011;9102;53.548;9.926;2022-11-14T01:54:49;56.42;;;28.92;;
17953;SDS011;9102;53.548;9.926;2022-11-14T01:57:18;60.47;;;30.30;;
17953;SDS011;9102;53.548;9.926;2022-11-14T01:59:49;55.65;;;29.00;;
17953;SDS011;9102;53.548;9.926;2022-11-14T02:02:19;56.53;;;29.33;;
17953;SDS011;9102;53.548;9.926;2022-11-14T02:04:49;59.33;;;29.70;;
17953;SDS011;9102;53.548;9.926;2022-11-14T02:07:23;61.60;;;29.23;;
17953;SDS011;9102;53.548;9.926;2022-11-14T02:09:52;62.97;;;30.98;;
17953;SDS011;9102;53.548;9.926;2022-11-14T02:12:21;57.65;;;29.23;;
17953;SDS011;9102;53.548;9.926;2022-11-14T02:14:50;57.47;;;30.02;;
17953;SDS011;9102;53.548;9.926;2022-11-14T02:17:19;59.95;;;29.75;;
17953;SDS011;9102;53.548;9.926;2022-11-14T02:19:48;63.22;;;29.40;;
17953;SDS011;9102;53.548;9.926;2022-11-14T02:22:19;58.58;;;30.63;;
17953;SDS011;9102;53.548;9.926;2022-11-14T02:24:46;62.42;;;32.15;;
17953;SDS011;9102;53.548;9.926;2022-11-14T02:27:13;58.90;;;29.67;;
17953;SDS011;9102;53.548;9.926;2022-11-14T02:29:41;60.20;;;29.38;;
17953;SDS011;9102;53.548;9.926;2022-11-14T02:32:08;60.88;;;30.58;;
17953;SDS011;9102;53.548;9.926;2022-11-14T02:34:35;62.70;;;30.85;;
17953;SDS011;9102;53.548;9.926;2022-11-14T02:37:02;62.63;;;30.90;;
17953;SDS011;9102;53.548;9.926;2022-11-14T02:39:30;61.35;;;30.50;;
17953;SDS011;9102;53.548;9.926;2022-11-14T02:41:57;59.95;;;30.52;;
17953;SDS011;9102;53.548;9.926;2022-11-14T02:44:25;59.05;;;30.33;;
17953;SDS011;9102;53.548;9.926;2022-11-14T02:46:52;57.92;;;30.40;;
17953;SDS011;9102;53.548;9.926;2022-11-14T02:49:19;68.05;;;32.25;;
17953;SDS011;9102;53.548;9.926;2022-11-14T02:51:46;58.50;;;30.20;;
17953;SDS011;9102;53.548;9.926;2022-11-14T02:54:13;69.65;;;33.20;;
17953;SDS011;9102;53.548;9.926;2022-11-14T02:56:41;62.22;;;30.60;;
17953;SDS011;9102;53.548;9.926;2022-11-14T02:59:08;64.78;;;31.58;;
17953;SDS011;9102;53.548;9.926;2022-11-14T03:01:35;64.88;;;30.73;;
17953;SDS011;9102;53.548;9.926;2022-11-14T03:04:02;62.50;;;30.08;;
17953;SDS011;9102;53.548;9.926;2022-11-14T03:06:29;61.25;;;29.30;;
17953;SDS011;9102;53.548;9.926;2022-11-14T03:08:56;61.50;;;30.70;;
17953;SDS011;9102;53.548;9.926;2022-11-14T03:11:23;59.00;;;29.90;;
17953;SDS011;9102;53.548;9.926;2022-11-14T03:13:51;62.35;;;31.02;;
17953;SDS011;9102;53.548;9.926;2022-11-14T03:16:18;64.28;;;30.60;;
17953;SDS011;9102;53.548;9.926;2022-11-14T03:18:45;65.70;;;32.45;;
17953;SDS011;9102;53.548;9.926;2022-11-14T03:21:12;59.67;;;31.20;;
17953;SDS011;9102;53.548;9.926;2022-11-14T03:23:40;69.20;;;31.05;;
17953;SDS011;9102;53.548;9.926;2022-11-14T03:26:09;63.38;;;30.45;;
17953;SDS011;9102;53.548;9.926;2022-11-14T03:28:37;64.78;;;31.55;;
17953;SDS011;9102;53.548;9.926;2022-11-14T03:31:05;58.35;;;31.02;;
17953;SDS011;9102;53.548;9.926;2022-11-14T03:33:34;65.32;;;31.95;;
17953;SDS011;9102;53.548;9.926;2022-11-14T03:36:01;62.55;;;30.48;;
17953;SDS011;9102;53.548;9.926;2022-11-14T03:38:29;68.88;;;32.33;;
17953;SDS011;9102;53.548;9.926;2022-11-14T03:40:56;61.50;;;31.52;;
17953;SDS011;9102;53.548;9.926;2022-11-14T03:43:24;64.53;;;31.58;;
17953;SDS011;9102;53.548;9.926;2022-11-14T03:45:51;64.70;;;31.15;;
17953;SDS011;9102;53.548;9.926;2022-11-14T03:48:19;61.97;;;30.70;;
17953;SDS011;9102;53.548;9.926;2022-11-14T03:50:46;70.05;;;32.25;;
17953;SDS011;9102;53.548;9.926;2022-11-14T03:53:13;63.45;;;31.70;;
17953;SDS011;9102;53.548;9.926;2022-11-14T03:55:41;69.63;;;32.78;;
17953;SDS011;9102;53.548;9.926;2022-11-14T03:58:08;63.47;;;30.55;;
17953;SDS011;9102;53.548;9.926;2022-11-14T04:00:35;71.82;;;33.90;;
17953;SDS011;9102;53.548;9.926;2022-11-14T04:03:02;60.25;;;31.33;;
17953;SDS011;9102;53.548;9.926;2022-11-14T04:05:30;62.75;;;30.38;;
17953;SDS011;9102;53.548;9.926;2022-11-14T04:07:57;64.47;;;31.73;;
17953;SDS011;9102;53.548;9.926;2022-11-14T04:10:24;64.57;;;31.48;;
17953;SDS011;9102;53.548;9.926;2022-11-14T04:12:51;59.85;;;29.95;;
17953;SDS011;9102;53.548;9.926;2022-11-14T04:15:19;60.08;;;30.88;;
17953;SDS011;9102;53.548;9.926;2022-11-14T04:17:46;67.32;;;31.15;;
17953;SDS011;9102;53.548;9.926;2022-11-14T04:20:13;66.32;;;33.60;;
17953;SDS011;9102;53.548;9.926;2022-11-14T04:22:42;63.83;;;32.83;;
17953;SDS011;9102;53.548;9.926;2022-11-14T04:25:08;65.55;;;32.40;;
17953;SDS011;9102;53.548;9.926;2022-11-14T04:27:35;64.07;;;32.47;;
17953;SDS011;9102;53.548;9.926;2022-11-14T04:30:02;60.70;;;32.33;;
17953;SDS011;9102;53.548;9.926;2022-11-14T04:32:30;64.88;;;32.17;;
17953;SDS011;9102;53.548;9.926;2022-11-14T04:34:57;62.60;;;30.88;;
17953;SDS011;9102;53.548;9.926;2022-11-14T04:37:24;65.03;;;32.70;;
17953;SDS011;9102;53.548;9.926;2022-11-14T04:39:52;66.72;;;32.85;;
17953;SDS011;9102;53.548;9.926;2022-11-14T04:42:22;62.53;;;31.92;;
17953;SDS011;9102;53.548;9.926;2022-11-14T04:44:49;67.00;;;32.60;;
17953;SDS011;9102;53.548;9.926;2022-11-14T04:47:16;68.07;;;33.38;;
17953;SDS011;9102;53.548;9.926;2022-11-14T04:49:43;65.38;;;31.25;;
17953;SDS011;9102;53.548;9.926;2022-11-14T04:52:11;64.68;;;32.05;;
17953;SDS011;9102;53.548;9.926;2022-11-14T04:54:38;62.45;;;30.85;;
17953;SDS011;9102;53.548;9.926;2022-11-14T04:57:06;58.38;;;28.83;;
17953;SDS011;9102;53.548;9.926;2022-11-14T04:59:33;56.10;;;29.48;;
17953;SDS011;9102;53.548;9.926;2022-11-14T05:01:59;60.05;;;30.42;;
17953;SDS011;9102;53.548;9.926;2022-11-14T05:04:26;59.88;;;30.80;;
17953;SDS011;9102;53.548;9.926;2022-11-14T05:06:53;58.85;;;30.92;;
17953;SDS011;9102;53.548;9.926;2022-11-14T05:09:20;61.95;;;31.20;;
17953;SDS011;9102;53.548;9.926;2022-11-14T05:11:47;61.58;;;29.90;;
17953;SDS011;9102;53.548;9.926;2022-11-14T05:14:15;63.35;;;31.90;;
17953;SDS011;9102;53.548;9.926;2022-11-14T05:16:41;58.88;;;31.75;;
17953;SDS011;9102;53.548;9.926;2022-11-14T05:19:08;59.83;;;30.40;;
17953;SDS011;9102;53.548;9.926;2022-11-14T05:21:35;67.25;;;31.85;;
17953;SDS011;9102;53.548;9.926;2022-11-14T05:24:02;61.90;;;30.10;;
17953;SDS011;9102;53.548;9.926;2022-11-14T05:26:29;62.53;;;30.58;;
17953;SDS011;9102;53.548;9.926;2022-11-14T05:28:56;62.72;;;29.70;;
17953;SDS011;9102;53.548;9.926;2022-11-14T05:31:24;65.95;;;31.20;;
17953;SDS011;9102;53.548;9.926;2022-11-14T05:33:51;59.53;;;29.77;;
17953;SDS011;9102;53.548;9.926;2022-11-14T05:36:18;61.30;;;30.92;;
17953;SDS011;9102;53.548;9.926;2022-11-14T05:38:44;65.45;;;32.00;;
17953;SDS011;9102;53.548;9.926;2022-11-14T05:41:12;66.00;;;32.20;;
17953;SDS011;9102;53.548;9.926;2022-11-14T05:43:40;65.50;;;30.30;;
17953;SDS011;9102;53.548;9.926;2022-11-14T05:46:09;63.85;;;31.10;;
17953;SDS011;9102;53.548;9.926;2022-11-14T05:48:39;62.55;;;31.15;;
17953;SDS011;9102;53.548;9.926;2022-11-14T05:51:08;67.18;;;33.05;;
17953;SDS011;9102;53.548;9.926;2022-11-14T05:53:36;64.35;;;32.50;;
17953;SDS011;9102;53.548;9.926;2022-11-14T05:56:04;70.55;;;32.50;;
17953;SDS011;9102;53.548;9.926;2022-11-14T05:58:32;65.15;;;31.65;;
17953;SDS011;9102;53.548;9.926;2022-11-14T06:01:00;66.55;;;32.92;;
17953;SDS011;9102;53.548;9.926;2022-11-14T06:03:29;66.97;;;32.38;;
17953;SDS011;9102;53.548;9.926;2022-11-14T06:05:59;65.97;;;32.47;;
17953;SDS011;9102;53.548;9.926;2022-11-14T06:08:27;66.07;;;33.33;;
17953;SDS011;9102;53.548;9.926;2022-11-14T06:10:54;66.85;;;32.63;;
17953;SDS011;9102;53.548;9.926;2022-11-14T06:13:22;67.57;;;32.20;;
17953;SDS011;9102;53.548;9.926;2022-11-14T06:15:49;65.20;;;32.40;;
17953;SDS011;9102;53.548;9.926;2022-11-14T06:18:16;67.20;;;31.55;;
17953;SDS011;9102;53.548;9.926;2022-11-14T06:20:43;98.53;;;33.40;;
17953;SDS011;9102;53.548;9.926;2022-11-14T06:23:11;61.65;;;32.05;;
17953;SDS011;9102;53.548;9.926;2022-11-14T06:25:38;61.53;;;31.05;;
17953;SDS011;9102;53.548;9.926;2022-11-14T06:28:05;65.40;;;31.90;;
17953;SDS011;9102;53.548;9.926;2022-11-14T06:30:31;68.88;;;32.67;;
17953;SDS011;9102;53.548;9.926;2022-11-14T06:32:58;65.72;;;31.75;;
17953;SDS011;9102;53.548;9.926;2022-11-14T06:35:25;65.50;;;31.95;;
17953;SDS011;9102;53.548;9.926;2022-11-14T06:37:52;66.45;;;32.67;;
17953;SDS011;9102;53.548;9.926;2022-11-14T06:40:20;64.43;;;31.90;;
17953;SDS011;9102;53.548;9.926;2022-11-14T06:42:47;69.75;;;33.72;;
17953;SDS011;9102;53.548;9.926;2022-11-14T06:45:14;65.97;;;32.80;;
17953;SDS011;9102;53.548;9.926;2022-11-14T06:47:41;66.60;;;33.38;;
17953;SDS011;9102;53.548;9.926;2022-11-14T06:50:08;66.55;;;32.85;;
17953;SDS011;9102;53.548;9.926;2022-11-14T06:52:35;63.38;;;32.05;;
17953;SDS011;9102;53.548;9.926;2022-11-14T06:55:02;66.53;;;32.85;;
17953;SDS011;9102;53.548;9.926;2022-11-14T06:57:30;63.17;;;32.17;;
17953;SDS011;9102;53.548;9.926;2022-11-14T06:59:57;62.13;;;31.10;;
17953;SDS011;9102;53.548;9.926;2022-11-14T07:02:24;67.22;;;32.22;;
17953;SDS011;9102;53.548;9.926;2022-11-14T07:04:51;67.85;;;33.47;;
17953;SDS011;9102;53.548;9.926;2022-11-14T07:07:18;68.70;;;31.73;;
17953;SDS011;9102;53.548;9.926;2022-11-14T07:09:44;65.25;;;32.17;;
17953;SDS011;9102;53.548;9.926;2022-11-14T07:12:11;66.13;;;33.10;;
17953;SDS011;9102;53.548;9.926;2022-11-14T07:14:39;74.05;;;34.03;;
17953;SDS011;9102;53.548;9.926;2022-11-14T07:17:06;69.28;;;33.60;;
17953;SDS011;9102;53.548;9.926;2022-11-14T07:19:33;72.55;;;33.55;;
17953;SDS011;9102;53.548;9.926;2022-11-14T07:22:00;71.10;;;33.30;;
17953;SDS011;9102;53.548;9.926;2022-11-14T07:24:26;66.40;;;32.42;;
17953;SDS011;9102;53.548;9.926;2022-11-14T07:26:53;67.22;;;32.97;;
17953;SDS011;9102;53.548;9.926;2022-11-14T07:29:20;68.82;;;34.08;;
17953;SDS011;9102;53.548;9.926;2022-11-14T07:31:48;73.18;;;35.20;;
17953;SDS011;9102;53.548;9.926;2022-11-14T07:34:15;71.20;;;33.90;;
17953;SDS011;9102;53.548;9.926;2022-11-14T07:36:42;65.10;;;32.42;;
17953;SDS011;9102;53.548;9.926;2022-11-14T07:39:09;71.13;;;33.70;;
17953;SDS011;9102;53.548;9.926;2022-11-14T07:41:36;69.90;;;33.78;;
17953;SDS011;9102;53.548;9.926;2022-11-14T07:44:04;65.05;;;31.77;;
17953;SDS011;9102;53.548;9.926;2022-11-14T07:46:31;73.25;;;33.60;;
17953;SDS011;9102;53.548;9.926;2022-11-14T07:48:59;74.35;;;34.65;;
17953;SDS011;9102;53.548;9.926;2022-11-14T07:51:26;71.53;;;32.95;;
17953;SDS011;9102;53.548;9.926;2022-11-14T07:53:53;70.57;;;33.72;;
17953;SDS011;9102;53.548;9.926;2022-11-14T07:56:20;63.25;;;32.38;;
17953;SDS011;9102;53.548;9.926;2022-11-14T07:58:47;66.47;;;32.47;;
17953;SDS011;9102;53.548;9.926;2022-11-14T08:01:14;62.58;;;30.15;;
17953;SDS011;9102;53.548;9.926;2022-11-14T08:03:40;71.18;;;34.33;;
17953;SDS011;9102;53.548;9.926;2022-11-14T08:06:09;69.22;;;32.85;;
17953;SDS011;9102;53.548;9.926;2022-11-14T08:08:37;68.40;;;32.25;;
17953;SDS011;9102;53.548;9.926;2022-11-14T08:11:04;67.60;;;30.90;;
17953;SDS011;9102;53.548;9.926;2022-11-14T08:13:31;61.88;;;29.75;;
17953;SDS011;9102;53.548;9.926;2022-11-14T08:15:58;60.35;;;30.05;;
17953;SDS011;9102;53.548;9.926;2022-11-14T08:18:28;61.45;;;28.88;;
17953;SDS011;9102;53.548;9.926;2022-11-14T08:20:55;56.60;;;27.92;;
17953;SDS011;9102;53.548;9.926;2022-11-14T08:23:24;62.05;;;30.23;;
17953;SDS011;9102;53.548;9.926;2022-11-14T08:25:51;67.13;;;29.17;;
17953;SDS011;9102;53.548;9.926;2022-11-14T08:28:18;72.85;;;34.05;;
17953;SDS011;9102;53.548;9.926;2022-11-14T08:30:45;73.43;;;33.08;;
17953;SDS011;9102;53.548;9.926;2022-11-14T08:33:11;76.63;;;33.88;;
17953;SDS011;9102;53.548;9.926;2022-11-14T08:35:38;75.47;;;33.60;;
17953;SDS011;9102;53.548;9.926;2022-11-14T08:38:05;76.63;;;35.33;;
17953;SDS011;9102;53.548;9.926;2022-11-14T08:40:33;71.60;;;32.28;;
17953;SDS011;9102;53.548;9.926;2022-11-14T08:43:00;72.88;;;33.88;;
17953;SDS011;9102;53.548;9.926;2022-11-14T08:45:28;68.75;;;33.08;;
17953;SDS011;9102;53.548;9.926;2022-11-14T08:47:55;71.00;;;33.35;;
17953;SDS011;9102;53.548;9.926;2022-11-14T08:50:22;72.65;;;33.17;;
17953;SDS011;9102;53.548;9.926;2022-11-14T08:52:49;66.57;;;32.72;;
17953;SDS011;9102;53.548;9.926;2022-11-14T08:55:16;70.13;;;32.42;;
17953;SDS011;9102;53.548;9.926;2022-11-14T08:57:45;71.20;;;31.65;;
17953;SDS011;9102;53.548;9.926;2022-11-14T09:00:13;65.22;;;30.98;;
17953;SDS011;9102;53.548;9.926;2022-11-14T09:02:40;68.55;;;31.63;;
17953;SDS011;9102;53.548;9.926;2022-11-14T09:05:08;66.82;;;31.80;;
17953;SDS011;9102;53.548;9.926;2022-11-14T09:07:35;67.30;;;31.40;;
17953;SDS011;9102;53.548;9.926;2022-11-14T09:10:02;72.82;;;32.85;;
17953;SDS011;9102;53.548;9.926;2022-11-14T09:12:30;72.97;;;33.10;;
17953;SDS011;9102;53.548;9.926;2022-11-14T09:14:59;66.90;;;31.08;;
17953;SDS011;9102;53.548;9.926;2022-11-14T09:17:25;68.60;;;32.10;;
17953;SDS011;9102;53.548;9.926;2022-11-14T09:19:52;72.90;;;32.45;;
17953;SDS011;9102;53.548;9.926;2022-11-14T09:22:19;69.97;;;32.10;;
17953;SDS011;9102;53.548;9.926;2022-11-14T09:24:46;69.40;;;31.65;;
17953;SDS011;9102;53.548;9.926;2022-11-14T09:27:13;63.85;;;31.10;;
17953;SDS011;9102;53.548;9.926;2022-11-14T09:29:41;74.25;;;31.85;;
17953;SDS011;9102;53.548;9.926;2022-11-14T09:32:09;69.93;;;33.70;;
17953;SDS011;9102;53.548;9.926;2022-11-14T09:34:36;65.05;;;31.08;;
17953;SDS011;9102;53.548;9.926;2022-11-14T09:37:07;69.97;;;32.30;;
17953;SDS011;9102;53.548;9.926;2022-11-14T09:39:34;72.45;;;32.05;;
17953;SDS011;9102;53.548;9.926;2022-11-14T09:42:09;74.20;;;32.13;;
17953;SDS011;9102;53.548;9.926;2022-11-14T09:44:52;74.00;;;33.13;;
17953;SDS011;9102;53.548;9.926;2022-11-14T09:47:23;65.97;;;32.13;;
17953;SDS011;9102;53.548;9.926;2022-11-14T09:49:54;65.13;;;31.05;;
17953;SDS011;9102;53.548;9.926;2022-11-14T09:52:28;66.53;;;30.45;;
17953;SDS011;9102;53.548;9.926;2022-11-14T09:55:01;67.60;;;31.17;;
17953;SDS011;9102;53.548;9.926;2022-11-14T09:57:35;67.63;;;30.48;;
17953;SDS011;9102;53.548;9.926;2022-11-14T10:00:03;66.65;;;30.17;;
17953;SDS011;9102;53.548;9.926;2022-11-14T10:02:40;72.40;;;33.53;;
17953;SDS011;9102;53.548;9.926;2022-11-14T10:05:33;65.72;;;32.13;;
17953;SDS011;9102;53.548;9.926;2022-11-14T10:08:14;66.38;;;30.80;;
17953;SDS011;9102;53.548;9.926;2022-11-14T10:11:05;67.72;;;31.63;;
17953;SDS011;9102;53.548;9.926;2022-11-14T10:13:48;68.47;;;30.83;;
17953;SDS011;9102;53.548;9.926;2022-11-14T10:16:29;69.32;;;31.27;;
17953;SDS011;9102;53.548;9.926;2022-11-14T10:19:08;66.30;;;30.63;;
17953;SDS011;9102;53.548;9.926;2022-11-14T10:21:45;69.78;;;31.30;;
17953;SDS011;9102;53.548;9.926;2022-11-14T10:24:27;69.05;;;31.35;;
17953;SDS011;9102;53.548;9.926;2022-11-14T10:27:06;75.38;;;32.63;;
17953;SDS011;9102;53.548;9.926;2022-11-14T10:29:46;62.67;;;29.85;;
17953;SDS011;9102;53.548;9.926;2022-11-14T10:32:35;63.38;;;30.27;;
17953;SDS011;9102;53.548;9.926;2022-11-14T10:35:13;64.20;;;29.67;;
17953;SDS011;9102;53.548;9.926;2022-11-14T10:37:45;62.50;;;30.92;;
17953;SDS011;9102;53.548;9.926;2022-11-14T10:40:18;65.60;;;30.83;;
17953;SDS011;9102;53.548;9.926;2022-11-14T10:42:49;61.15;;;29.30;;
17953;SDS011;9102;53.548;9.926;2022-11-14T10:45:22;56.25;;;29.17;;
17953;SDS011;9102;53.548;9.926;2022-11-14T10:47:53;64.47;;;29.85;;
17953;SDS011;9102;53.548;9.926;2022-11-14T10:50:26;63.88;;;30.25;;
17953;SDS011;9102;53.548;9.926;2022-11-14T10:52:59;62.15;;;29.92;;
17953;SDS011;9102;53.548;9.926;2022-11-14T10:55:29;58.25;;;29.67;;
17953;SDS011;9102;53.548;9.926;2022-11-14T10:57:56;58.17;;;28.60;;
17953;SDS011;9102;53.548;9.926;2022-11-14T11:00:23;54.90;;;27.55;;
17953;SDS011;9102;53.548;9.926;2022-11-14T11:02:51;59.00;;;28.25;;
17953;SDS011;9102;53.548;9.926;2022-11-14T11:05:20;169.80;;;38.40;;
17953;SDS011;9102;53.548;9.926;2022-11-14T11:07:49;61.00;;;28.20;;
17953;SDS011;9102;53.548;9.926;2022-11-14T11:10:35;54.38;;;27.65;;
17953;SDS011;9102;53.548;9.926;2022-11-14T11:13:28;56.88;;;28.45;;
17953;SDS011;9102;53.548;9.926;2022-11-14T11:15:58;57.05;;;28.48;;
17953;SDS011;9102;53.548;9.926;2022-11-14T11:18:27;57.10;;;27.85;;
17953;SDS011;9102;53.548;9.926;2022-11-14T11:21:06;56.28;;;28.55;;
17953;SDS011;9102;53.548;9.926;2022-11-14T11:23:36;55.13;;;28.63;;
17953;SDS011;9102;53.548;9.926;2022-11-14T11:26:19;56.95;;;28.55;;
17953;SDS011;9102;53.548;9.926;2022-11-14T11:31:47;61.80;;;29.77;;
17953;SDS011;9102;53.548;9.926;2022-11-14T11:34:16;50.33;;;26.02;;
17953;SDS011;9102;53.548;9.926;2022-11-14T11:36:49;58.83;;;28.75;;
17953;SDS011;9102;53.548;9.926;2022-11-14T11:39:24;54.30;;;28.00;;
17953;SDS011;9102;53.548;9.926;2022-11-14T11:41:54;51.08;;;26.27;;
17953;SDS011;9102;53.548;9.926;2022-11-14T11:44:25;53.75;;;27.58;;
17953;SDS011;9102;53.548;9.926;2022-11-14T11:46:59;52.42;;;26.65;;
17953;SDS011;9102;53.548;9.926;2022-11-14T11:49:33;49.35;;;26.13;;
17953;SDS011;9102;53.548;9.926;2022-11-14T11:52:09;50.75;;;26.45;;
17953;SDS011;9102;53.548;9.926;2022-11-14T11:54:48;52.97;;;26.88;;
17953;SDS011;9102;53.548;9.926;2022-11-14T11:57:21;56.45;;;27.50;;
17953;SDS011;9102;53.548;9.926;2022-11-14T11:59:54;49.65;;;25.38;;
17953;SDS011;9102;53.548;9.926;2022-11-14T12:02:29;47.83;;;25.38;;
17953;SDS011;9102;53.548;9.926;2022-11-14T12:04:57;50.40;;;26.90;;
17953;SDS011;9102;53.548;9.926;2022-11-14T12:07:30;46.05;;;26.30;;
17953;SDS011;9102;53.548;9.926;2022-11-14T12:10:11;49.47;;;27.23;;
17953;SDS011;9102;53.548;9.926;2022-11-14T12:12:54;49.83;;;26.80;;
17953;SDS011;9102;53.548;9.926;2022-11-14T12:15:46;46.83;;;25.58;;
17953;SDS011;9102;53.548;9.926;2022-11-14T12:18:36;48.63;;;26.02;;
17953;SDS011;9102;53.548;9.926;2022-11-14T12:21:23;48.35;;;25.20;;
17953;SDS011;9102;53.548;9.926;2022-11-14T12:27:10;44.13;;;25.38;;
17953;SDS011;9102;53.548;9.926;2022-11-14T12:29:54;47.60;;;25.80;;
17953;SDS011;9102;53.548;9.926;2022-11-14T12:32:35;52.17;;;26.80;;
17953;SDS011;9102;53.548;9.926;2022-11-14T12:35:06;46.75;;;25.30;;
17953;SDS011;9102;53.548;9.926;2022-11-14T12:37:43;49.03;;;26.40;;
17953;SDS011;9102;53.548;9.926;2022-11-14T12:40:17;52.75;;;25.65;;
17953;SDS011;9102;53.548;9.926;2022-11-14T12:42:51;51.35;;;24.88;;
17953;SDS011;9102;53.548;9.926;2022-11-14T12:48:28;50.15;;;26.35;;
17953;SDS011;9102;53.548;9.926;2022-11-14T12:50:57;54.00;;;27.58;;
17953;SDS011;9102;53.548;9.926;2022-11-14T13:05:14;52.22;;;26.13;;
17953;SDS011;9102;53.548;9.926;2022-11-14T13:08:08;52.00;;;25.88;;
17953;SDS011;9102;53.548;9.926;2022-11-14T13:10:47;51.58;;;26.77;;
17953;SDS011;9102;53.548;9.926;2022-11-14T13:13:14;50.30;;;25.58;;
17953;SDS011;9102;53.548;9.926;2022-11-14T13:16:00;58.17;;;28.92;;
17953;SDS011;9102;53.548;9.926;2022-11-14T13:18:58;55.97;;;26.52;;
17953;SDS011;9102;53.548;9.926;2022-11-14T13:27:42;47.78;;;25.80;;
17953;SDS011;9102;53.548;9.926;2022-11-14T13:30:09;53.92;;;27.80;;
17953;SDS011;9102;53.548;9.926;2022-11-14T13:44:43;52.30;;;25.67;;
17953;SDS011;9102;53.548;9.926;2022-11-14T13:47:48;49.22;;;26.20;;
17953;SDS011;9102;53.548;9.926;2022-11-14T13:50:41;50.53;;;26.33;;
17953;SDS011;9102;53.548;9.926;2022-11-14T13:53:13;52.53;;;27.27;;
17953;SDS011;9102;53.548;9.926;2022-11-14T13:55:53;48.90;;;26.20;;
17953;SDS011;9102;53.548;9.926;2022-11-14T13:58:26;55.40;;;28.23;;
17953;SDS011;9102;53.548;9.926;2022-11-14T14:01:07;51.30;;;26.33;;
17953;SDS011;9102;53.548;9.926;2022-11-14T14:03:48;55.42;;;27.60;;
17953;SDS011;9102;53.548;9.926;2022-11-14T14:06:36;51.47;;;27.55;;
17953;SDS011;9102;53.548;9.926;2022-11-14T14:09:14;55.75;;;27.70;;
17953;SDS011;9102;53.548;9.926;2022-11-14T14:11:52;51.88;;;28.23;;
17953;SDS011;9102;53.548;9.926;2022-11-14T14:14:36;53.97;;;27.08;;
17953;SDS011;9102;53.548;9.926;2022-11-14T14:17:16;55.33;;;27.48;;
17953;SDS011;9102;53.548;9.926;2022-11-14T14:19:53;49.92;;;26.00;;
17953;SDS011;9102;53.548;9.926;2022-11-14T14:22:30;54.67;;;26.95;;
17953;SDS011;9102;53.548;9.926;2022-11-14T14:25:05;55.00;;;28.42;;
17953;SDS011;9102;53.548;9.926;2022-11-14T14:27:42;55.28;;;28.40;;
17953;SDS011;9102;53.548;9.926;2022-11-14T14:30:20;49.88;;;26.38;;
17953;SDS011;9102;53.548;9.926;2022-11-14T14:33:00;57.42;;;27.40;;
17953;SDS011;9102;53.548;9.926;2022-11-14T14:35:29;57.35;;;26.80;;
17953;SDS011;9102;53.548;9.926;2022-11-14T14:37:58;56.33;;;27.92;;
17953;SDS011;9102;53.548;9.926;2022-11-14T14:40:26;55.28;;;27.95;;
17953;SDS011;9102;53.548;9.926;2022-11-14T14:42:57;53.00;;;27.40;;
17953;SDS011;9102;53.548;9.926;2022-11-14T14:45:25;51.40;;;25.98;;
17953;SDS011;9102;53.548;9.926;2022-11-14T14:47:57;55.63;;;26.92;;
17953;SDS011;9102;53.548;9.926;2022-11-14T14:50:28;57.85;;;27.27;;
17953;SDS011;9102;53.548;9.926;2022-11-14T14:53:00;52.15;;;26.73;;
17953;SDS011;9102;53.548;9.926;2022-11-14T14:55:29;60.95;;;29.08;;
17953;SDS011;9102;53.548;9.926;2022-11-14T14:58:11;53.92;;;26.98;;
17953;SDS011;9102;53.548;9.926;2022-11-14T15:00:38;55.10;;;28.02;;
17953;SDS011;9102;53.548;9.926;2022-11-14T15:03:05;56.17;;;28.08;;
17953;SDS011;9102;53.548;9.926;2022-11-14T15:05:35;61.42;;;27.58;;
17953;SDS011;9102;53.548;9.926;2022-11-14T15:08:03;55.90;;;27.30;;
17953;SDS011;9102;53.548;9.926;2022-11-14T15:10:30;54.40;;;27.85;;
17953;SDS011;9102;53.548;9.926;2022-11-14T15:12:57;57.22;;;26.85;;
17953;SDS011;9102;53.548;9.926;2022-11-14T15:15:24;48.70;;;26.33;;
17953;SDS011;9102;53.548;9.926;2022-11-14T15:17:53;54.00;;;27.00;;
17953;SDS011;9102;53.548;9.926;2022-11-14T15:20:23;53.17;;;26.70;;
17953;SDS011;9102;53.548;9.926;2022-11-14T15:23:00;57.38;;;27.60;;
17953;SDS011;9102;53.548;9.926;2022-11-14T15:25:30;55.45;;;26.67;;
17953;SDS011;9102;53.548;9.926;2022-11-14T15:27:57;57.60;;;29.13;;
17953;SDS011;9102;53.548;9.926;2022-11-14T15:30:25;56.38;;;29.25;;